Time;durP1;ratioP1;P1;durP2;ratioP2;P2;SDS_P1;SDS_P2;PMS_P1;PMS_P2;Temp;Humidity;BMP_temperature;BMP_pressure;BME280_temperature;BME280_humidity;BME280_pressure;Samples;Min_cycle;Max_cycle;Signal;HPM_P1;HPM_P2
2023/04/06 00:01:49;;;;;;;8.30;7.57;;;;;;;1.61;52.36;94642.09;4997604;28;20244;-71
2023/04/06 00:04:15;;;;;;;8.10;7.23;;;;;;;1.54;52.07;94636.50;4968202;28;20224;-70
2023/04/06 00:06:41;;;;;;;7.33;6.73;;;;;;;1.45;52.80;94639.72;4990858;28;20227;-70
2023/04/06 00:09:06;;;;;;;7.77;7.13;;;;;;;1.60;52.02;94636.06;4998389;28;20220;-71
2023/04/06 00:11:32;;;;;;;8.00;7.40;;;;;;;1.53;52.57;94637.44;4966755;28;20220;-71
2023/04/06 00:13:57;;;;;;;8.07;7.37;;;;;;;1.58;52.08;94637.09;4964283;28;20221;-70
2023/04/06 00:16:23;;;;;;;7.70;7.10;;;;;;;1.60;52.00;94624.88;4966710;28;20228;-70
2023/04/06 00:18:48;;;;;;;7.90;7.20;;;;;;;1.56;52.38;94626.03;4967322;28;20223;-70
2023/04/06 00:21:14;;;;;;;8.33;7.53;;;;;;;1.60;52.30;94632.63;4969380;28;20216;-70
2023/04/06 00:23:41;;;;;;;8.07;7.33;;;;;;;1.69;52.30;94626.84;4998730;28;20195;-70
2023/04/06 00:26:06;;;;;;;7.90;7.20;;;;;;;1.67;52.22;94626.09;4964216;28;20192;-70
2023/04/06 00:28:32;;;;;;;8.63;7.73;;;;;;;1.54;52.68;94620.94;4996775;28;20470;-70
2023/04/06 00:30:57;;;;;;;8.10;7.40;;;;;;;1.57;52.05;94631.09;4995886;28;20233;-71
2023/04/06 00:33:23;;;;;;;8.07;7.37;;;;;;;1.63;52.51;94620.31;4968051;28;20233;-71
2023/04/06 00:35:49;;;;;;;7.37;6.67;;;;;;;1.63;52.36;94612.53;4966250;28;20192;-70
2023/04/06 00:38:15;;;;;;;7.83;7.13;;;;;;;1.72;52.14;94614.47;4971659;28;20262;-70
2023/04/06 00:40:41;;;;;;;8.37;7.67;;;;;;;1.47;52.62;94612.78;4968836;28;20276;-70
2023/04/06 00:43:09;;;;;;;7.87;7.23;;;;;;;1.48;52.53;94616.19;4968467;28;20226;-70
2023/04/06 00:45:34;;;;;;;8.27;7.57;;;;;;;1.60;52.39;94611.91;4965230;28;20282;-71
2023/04/06 00:48:01;;;;;;;7.90;7.20;;;;;;;1.36;53.09;94610.09;4969329;28;20224;-70
2023/04/06 00:50:27;;;;;;;7.87;7.27;;;;;;;1.53;52.81;94598.56;4968732;28;20218;-70
2023/04/06 00:52:53;;;;;;;8.33;7.57;;;;;;;1.60;52.38;94598.94;4963641;28;20232;-70
2023/04/06 00:55:19;;;;;;;8.20;7.50;;;;;;;1.53;52.51;94601.97;4996469;28;20211;-71
2023/04/06 00:57:45;;;;;;;7.60;6.90;;;;;;;1.59;52.51;94602.50;4966426;28;20589;-70
2023/04/06 01:00:12;;;;;;;8.13;7.43;;;;;;;1.73;52.11;94600.56;4960148;28;20236;-70
2023/04/06 01:02:38;;;;;;;8.47;7.67;;;;;;;1.59;52.58;94613.69;4997993;28;20303;-70
2023/04/06 01:05:04;;;;;;;8.17;7.47;;;;;;;1.53;52.92;94611.53;4969689;28;20192;-69
2023/04/06 01:07:30;;;;;;;7.70;7.00;;;;;;;1.45;53.30;94606.06;4971889;28;20231;-69
2023/04/06 01:10:08;;;;;;;7.73;7.03;;;;;;;1.42;52.72;94603.69;4996755;28;20232;-70
2023/04/06 01:12:33;;;;;;;7.47;6.87;;;;;;;1.32;53.32;94601.72;4991636;28;20233;-70
2023/04/06 01:14:59;;;;;;;7.83;7.13;;;;;;;1.57;52.56;94589.63;4969693;28;20220;-70
2023/04/06 01:17:25;;;;;;;7.60;6.90;;;;;;;1.42;53.48;94598.50;4968657;28;20318;-70
2023/04/06 01:19:53;;;;;;;7.33;6.63;;;;;;;1.50;53.17;94585.84;4995986;28;20212;-69
2023/04/06 01:22:19;;;;;;;7.67;6.90;;;;;;;1.45;53.17;94587.91;4968234;28;20228;-69
2023/04/06 01:24:46;;;;;;;8.07;7.37;;;;;;;1.38;53.51;94591.84;4970334;28;20226;-69
2023/04/06 01:27:11;;;;;;;8.10;7.30;;;;;;;1.47;53.54;94592.06;5006699;28;20240;-69
2023/04/06 01:29:37;;;;;;;7.77;6.97;;;;;;;1.53;53.12;94588.19;4968290;28;20184;-69
2023/04/06 01:32:02;;;;;;;6.93;6.33;;;;;;;1.57;53.04;94588.81;4965063;28;20196;-69
2023/04/06 01:34:28;;;;;;;7.30;6.70;;;;;;;1.60;52.79;94580.81;4963772;28;20227;-69
2023/04/06 01:36:53;;;;;;;7.83;7.13;;;;;;;1.42;53.50;94580.38;4968139;28;20221;-69
2023/04/06 01:39:20;;;;;;;7.47;6.87;;;;;;;1.38;53.68;94579.72;4998773;28;20220;-69
2023/04/06 01:41:47;;;;;;;7.90;7.17;;;;;;;1.56;53.41;94581.97;4965103;28;20192;-70
2023/04/06 01:44:13;;;;;;;7.63;6.93;;;;;;;1.54;53.22;94582.06;4999006;28;20250;-70
2023/04/06 01:46:38;;;;;;;7.57;6.97;;;;;;;1.71;52.77;94578.28;4981621;28;20220;-69
2023/04/06 01:49:03;;;;;;;7.80;7.20;;;;;;;1.76;52.87;94573.59;4970246;28;20233;-70
2023/04/06 01:51:29;;;;;;;7.93;7.23;;;;;;;1.56;53.27;94594.94;4966506;28;20312;-70
2023/04/06 01:53:55;;;;;;;7.87;7.17;;;;;;;1.61;52.87;94570.34;4968773;28;20267;-70
2023/04/06 01:56:21;;;;;;;7.87;7.17;;;;;;;1.36;53.56;94570.41;4964304;28;20767;-70
2023/04/06 01:58:46;;;;;;;8.10;7.40;;;;;;;1.54;53.38;94580.31;4971300;28;20249;-70
2023/04/06 02:01:11;;;;;;;7.10;6.50;;;;;;;1.47;53.43;94566.16;4967884;28;20228;-71
2023/04/06 02:03:37;;;;;;;8.03;7.33;;;;;;;1.34;53.96;94573.13;4966648;28;20228;-70
2023/04/06 02:06:03;;;;;;;8.03;7.33;;;;;;;1.44;53.93;94558.56;4968671;28;20231;-70
2023/04/06 02:08:29;;;;;;;7.60;6.90;;;;;;;1.39;53.69;94559.81;4981456;28;20209;-70
2023/04/06 02:10:54;;;;;;;7.57;6.90;;;;;;;1.56;53.19;94566.44;4966189;28;20251;-70
2023/04/06 02:13:20;;;;;;;7.67;6.97;;;;;;;1.45;53.30;94559.41;4962183;28;20228;-71
2023/04/06 02:15:45;;;;;;;7.17;6.47;;;;;;;1.41;53.69;94558.78;4968843;28;20276;-70
2023/04/06 02:18:11;;;;;;;6.50;5.90;;;;;;;1.64;53.00;94556.34;4997192;28;20225;-70
2023/04/06 02:20:36;;;;;;;6.67;6.07;;;;;;;1.70;52.99;94558.50;4971015;28;20325;-71
2023/04/06 02:23:02;;;;;;;5.80;5.30;;;;;;;1.37;53.54;94561.72;4970992;28;20192;-70
2023/04/06 02:25:27;;;;;;;7.50;6.80;;;;;;;1.44;53.63;94558.56;4971316;28;20226;-71
2023/04/06 02:27:53;;;;;;;7.17;6.50;;;;;;;1.63;53.27;94558.13;4996487;28;20220;-70
2023/04/06 02:30:19;;;;;;;7.10;6.50;;;;;;;1.61;53.18;94557.41;4993780;28;20229;-70
2023/04/06 02:32:44;;;;;;;7.40;6.80;;;;;;;1.63;53.17;94549.50;4969448;28;20241;-70
2023/04/06 02:35:10;;;;;;;9.20;6.43;;;;;;;1.36;53.76;94552.28;4968972;28;20243;-69
2023/04/06 02:37:35;;;;;;;7.30;6.70;;;;;;;1.60;53.32;94563.50;4964311;28;20266;-71
2023/04/06 02:40:01;;;;;;;7.07;6.47;;;;;;;1.63;53.39;94542.56;4971076;28;20212;-71
2023/04/06 02:42:26;;;;;;;7.10;6.50;;;;;;;1.56;53.33;94567.25;4970098;28;20224;-72
2023/04/06 02:44:52;;;;;;;7.73;6.97;;;;;;;1.58;53.42;94557.63;4964389;28;20660;-71
2023/04/06 02:47:17;;;;;;;9.03;7.33;;;;;;;1.67;53.19;94550.94;4977455;28;20193;-71
2023/04/06 02:49:42;;;;;;;7.50;6.80;;;;;;;1.43;54.03;94559.50;4968291;28;20221;-71
2023/04/06 02:52:08;;;;;;;8.30;7.53;;;;;;;1.57;53.90;94561.13;4981630;28;20280;-71
2023/04/06 02:54:34;;;;;;;7.70;7.00;;;;;;;1.49;53.91;94558.25;4969438;28;20216;-72
2023/04/06 02:56:59;;;;;;;7.20;6.53;;;;;;;1.53;53.63;94570.06;4968771;28;20224;-70
2023/04/06 02:59:25;;;;;;;7.40;6.70;;;;;;;1.47;54.15;94552.34;4980092;28;20184;-73
2023/04/06 03:04:26;;;;;;;8.10;7.30;;;;;;;1.65;53.39;94545.84;5179068;23;20253;-71
2023/04/06 03:06:53;;;;;;;7.93;7.13;;;;;;;1.68;53.32;94545.63;4990492;28;20223;-70
2023/04/06 03:09:19;;;;;;;7.80;7.10;;;;;;;1.69;53.41;94544.72;4993713;28;20277;-70
2023/04/06 03:11:45;;;;;;;7.77;7.07;;;;;;;1.73;53.27;94559.09;4990387;28;20207;-70
2023/04/06 03:14:10;;;;;;;7.13;6.47;;;;;;;1.52;53.35;94558.03;4990633;28;20210;-70
2023/04/06 03:16:36;;;;;;;7.70;7.00;;;;;;;1.59;53.58;94554.06;4990814;28;20242;-72
2023/04/06 03:19:01;;;;;;;7.00;6.30;;;;;;;1.67;53.28;94553.53;4990191;28;20212;-72
2023/04/06 03:21:27;;;;;;;7.40;6.70;;;;;;;1.70;52.88;94541.19;4987719;28;20267;-72
2023/04/06 03:23:52;;;;;;;7.30;6.57;;;;;;;1.63;53.00;94552.09;4989027;28;20290;-72
2023/04/06 03:26:18;;;;;;;7.40;6.70;;;;;;;1.51;53.90;94561.56;4990505;28;20194;-74
2023/04/06 03:28:43;;;;;;;7.83;7.13;;;;;;;1.51;54.21;94558.97;4989937;28;20254;-72
2023/04/06 03:31:09;;;;;;;7.37;6.67;;;;;;;1.63;53.50;94555.53;4988394;28;20247;-69
2023/04/06 03:33:34;;;;;;;7.87;7.13;;;;;;;1.40;54.26;94551.97;4985910;28;20219;-69
2023/04/06 03:36:00;;;;;;;7.73;7.03;;;;;;;1.31;54.57;94540.50;4989006;28;20227;-69
2023/04/06 03:38:25;;;;;;;7.13;6.53;;;;;;;1.70;53.47;94550.72;5006427;28;20282;-69
2023/04/06 03:40:51;;;;;;;7.67;7.03;;;;;;;1.58;53.78;94549.84;4990795;28;20215;-69
2023/04/06 03:43:16;;;;;;;8.30;7.10;;;;;;;1.67;53.43;94562.13;4990284;28;20251;-69
2023/04/06 03:45:42;;;;;;;7.27;6.57;;;;;;;1.58;53.55;94539.47;4990408;28;20216;-69
2023/04/06 03:48:07;;;;;;;7.47;6.87;;;;;;;1.53;53.63;94550.16;4990092;28;20253;-70
2023/04/06 03:50:33;;;;;;;7.63;6.93;;;;;;;1.20;54.47;94544.75;4989975;28;20335;-69
2023/04/06 03:52:58;;;;;;;6.40;5.80;;;;;;;1.43;54.05;94540.56;4990451;28;20239;-71
2023/04/06 03:55:24;;;;;;;7.20;6.50;;;;;;;1.38;54.05;94542.63;4988705;28;20248;-70
2023/04/06 03:57:49;;;;;;;7.20;6.60;;;;;;;1.46;53.92;94548.94;4989374;28;20219;-67
2023/04/06 04:00:15;;;;;;;7.23;6.53;;;;;;;1.63;53.41;94542.56;4988030;28;20254;-67
2023/04/06 04:02:40;;;;;;;7.33;6.63;;;;;;;1.56;53.38;94545.69;4988959;28;20207;-67
2023/04/06 04:05:06;;;;;;;7.60;6.93;;;;;;;1.42;53.68;94550.09;4989816;28;20257;-69
2023/04/06 04:07:32;;;;;;;7.33;6.67;;;;;;;1.44;53.81;94558.56;4989048;28;20229;-68
2023/04/06 04:09:57;;;;;;;7.80;7.10;;;;;;;1.41;53.75;94543.25;4989974;28;20251;-71
2023/04/06 04:12:22;;;;;;;7.30;6.60;;;;;;;1.49;53.43;94556.47;4990748;28;20215;-68
2023/04/06 04:14:48;;;;;;;7.03;6.37;;;;;;;1.42;53.97;94550.09;4990046;28;20270;-67
2023/04/06 04:17:13;;;;;;;7.10;6.50;;;;;;;1.44;53.75;94555.16;4989525;28;20201;-70
2023/04/06 04:19:39;;;;;;;6.93;6.30;;;;;;;1.46;54.14;94563.66;4990142;28;20713;-71
2023/04/06 04:22:05;;;;;;;6.73;6.13;;;;;;;1.63;53.28;94549.50;4989532;28;20243;-70
2023/04/06 04:24:31;;;;;;;6.57;5.97;;;;;;;1.70;53.36;94542.94;4989778;28;20231;-70
2023/04/06 04:26:56;;;;;;;7.60;6.77;;;;;;;1.75;53.15;94556.41;4988328;28;20223;-68
2023/04/06 04:29:22;;;;;;;7.03;6.43;;;;;;;1.94;52.79;94556.72;4990754;28;20183;-67
2023/04/06 04:31:49;;;;;;;8.07;6.97;;;;;;;1.82;52.66;94552.44;4989305;28;20228;-74
2023/04/06 04:34:15;;;;;;;8.80;8.00;;;;;;;1.93;52.88;94560.28;4987741;28;20718;-69
2023/04/06 04:36:41;;;;;;;7.90;7.20;;;;;;;1.72;52.97;94562.63;4988957;28;20229;-73
2023/04/06 04:39:07;;;;;;;8.10;7.30;;;;;;;1.65;53.24;94553.63;4989204;28;20274;-69
2023/04/06 04:41:33;;;;;;;7.47;6.77;;;;;;;1.56;53.61;94556.06;4988809;28;20211;-71
2023/04/06 04:43:58;;;;;;;8.10;6.60;;;;;;;1.76;53.07;94548.53;4970579;28;20223;-75
2023/04/06 04:46:24;;;;;;;7.23;6.53;;;;;;;2.04;52.41;94554.31;4988594;28;20219;-73
2023/04/06 04:48:49;;;;;;;7.40;6.80;;;;;;;1.84;52.63;94549.72;4989157;28;20223;-69
2023/04/06 04:51:15;;;;;;;7.03;6.43;;;;;;;1.80;53.10;94556.91;4988384;28;20267;-75
2023/04/06 04:53:40;;;;;;;7.80;7.10;;;;;;;1.81;53.09;94547.34;4988388;28;20198;-68
2023/04/06 04:56:06;;;;;;;7.27;6.67;;;;;;;1.83;52.79;94553.25;4990122;28;20281;-72
2023/04/06 04:58:31;;;;;;;8.07;7.37;;;;;;;1.67;53.64;94544.00;4988878;28;20301;-67
2023/04/06 05:00:57;;;;;;;8.13;7.37;;;;;;;1.91;52.97;94550.94;4989167;28;20227;-66
2023/04/06 05:03:25;;;;;;;7.33;6.70;;;;;;;1.87;52.80;94554.69;4990276;28;20298;-66
2023/04/06 05:05:50;;;;;;;9.40;8.33;;;;;;;1.99;52.86;94552.03;4996470;28;20218;-66
2023/04/06 05:08:16;;;;;;;8.80;7.97;;;;;;;1.91;52.86;94548.34;4989116;28;20334;-66
2023/04/06 05:10:42;;;;;;;7.80;7.00;;;;;;;1.94;52.83;94550.72;4988980;28;20223;-65
2023/04/06 05:13:07;;;;;;;8.27;7.50;;;;;;;2.04;52.59;94537.94;4989235;28;20223;-66
2023/04/06 05:15:37;;;;;;;9.00;7.07;;;;;;;1.97;53.54;94543.53;4990703;28;20230;-61
2023/04/06 05:18:04;;;;;;;7.90;7.10;;;;;;;2.14;52.87;94544.09;4991784;28;20242;-64
2023/04/06 05:20:30;;;;;;;8.97;7.90;;;;;;;2.05;52.55;94563.72;4992680;28;20179;-64
2023/04/06 05:22:55;;;;;;;8.97;8.17;;;;;;;2.06;52.89;94560.22;4991729;28;20230;-65
2023/04/06 05:25:21;;;;;;;11.33;9.10;;;;;;;2.18;52.38;94545.50;4990800;28;20318;-65
2023/04/06 05:27:47;;;;;;;9.17;8.23;;;;;;;1.99;52.68;94557.22;4992057;28;20226;-65
2023/04/06 05:30:13;;;;;;;10.80;9.07;;;;;;;2.07;53.30;94561.88;4994577;28;20255;-66
2023/04/06 05:32:38;;;;;;;9.07;8.17;;;;;;;2.09;53.11;94547.03;4992621;28;20282;-65
2023/04/06 05:35:04;;;;;;;9.47;8.47;;;;;;;2.27;52.74;94551.78;4991979;28;20184;-65
2023/04/06 05:37:30;;;;;;;8.67;7.87;;;;;;;2.13;52.89;94548.44;4992279;28;20219;-65
2023/04/06 05:39:55;;;;;;;9.47;8.57;;;;;;;2.11;53.28;94546.88;4991650;28;20227;-65
2023/04/06 05:42:22;;;;;;;9.67;8.77;;;;;;;2.31;53.22;94554.03;4995346;28;20242;-65
2023/04/06 05:44:47;;;;;;;9.73;8.73;;;;;;;1.86;54.17;94558.22;4990978;28;20191;-65
2023/04/06 05:47:13;;;;;;;10.93;9.33;;;;;;;2.26;53.60;94553.56;4991199;28;20184;-64
2023/04/06 05:49:38;;;;;;;10.23;9.07;;;;;;;2.29;53.19;94547.31;4999046;28;20251;-63
2023/04/06 05:52:04;;;;;;;9.67;8.77;;;;;;;2.39;53.01;94546.53;4997616;28;20235;-63
2023/04/06 05:54:30;;;;;;;12.03;10.83;;;;;;;2.55;52.57;94543.63;4997182;28;20220;-62
2023/04/06 05:56:55;;;;;;;10.63;9.63;;;;;;;2.47;53.03;94537.34;4992237;28;20231;-65
2023/04/06 05:59:21;;;;;;;11.27;10.17;;;;;;;2.51;53.07;94542.19;4993045;28;20274;-65
2023/04/06 06:01:46;;;;;;;11.60;10.50;;;;;;;2.60;53.38;94538.09;4981643;28;20216;-63
2023/04/06 06:04:12;;;;;;;11.70;10.60;;;;;;;2.62;53.27;94539.63;4990712;28;20231;-63
2023/04/06 06:06:37;;;;;;;11.33;10.17;;;;;;;2.86;52.30;94544.72;4992596;28;20219;-61
2023/04/06 06:09:03;;;;;;;12.03;10.83;;;;;;;2.65;53.22;94534.19;4991636;28;20243;-61
2023/04/06 06:11:29;;;;;;;12.40;10.63;;;;;;;2.74;53.38;94534.44;4992802;28;20203;-61
2023/04/06 06:13:55;;;;;;;12.60;11.33;;;;;;;2.84;52.97;94528.44;4992742;28;20279;-61
2023/04/06 06:16:21;;;;;;;11.03;9.93;;;;;;;3.09;52.09;94531.75;4991716;28;20356;-61
2023/04/06 06:18:47;;;;;;;12.13;10.93;;;;;;;3.06;52.02;94535.41;4991083;28;20220;-61
2023/04/06 06:21:13;;;;;;;11.70;10.57;;;;;;;3.18;52.10;94527.59;4992688;28;20254;-62
2023/04/06 06:23:39;;;;;;;11.87;10.73;;;;;;;2.98;51.81;94532.56;4993007;28;20191;-62
2023/04/06 06:26:05;;;;;;;13.33;12.07;;;;;;;3.07;52.22;94539.69;4990252;28;20192;-62
2023/04/06 06:28:31;;;;;;;13.17;11.77;;;;;;;2.96;53.03;94533.63;4990830;28;20250;-62
2023/04/06 06:30:56;;;;;;;13.73;11.57;;;;;;;3.31;52.54;94541.28;4988957;28;20223;-61
2023/04/06 06:33:22;;;;;;;13.47;12.10;;;;;;;3.65;51.87;94531.69;4991723;28;20219;-62
2023/04/06 06:35:47;;;;;;;16.23;13.13;;;;;;;3.50;52.55;94530.28;4990632;28;20192;-62
2023/04/06 06:38:12;;;;;;;12.53;11.30;;;;;;;3.68;51.28;94526.22;4991960;28;20234;-62
2023/04/06 06:40:39;;;;;;;12.20;11.00;;;;;;;3.79;51.33;94530.56;4988604;28;20227;-63
2023/04/06 06:43:05;;;;;;;12.40;11.20;;;;;;;3.83;51.26;94529.41;4991793;28;20316;-62
2023/04/06 06:45:30;;;;;;;12.83;11.53;;;;;;;4.04;50.71;94529.44;4991770;28;20313;-63
2023/04/06 06:47:56;;;;;;;11.47;10.37;;;;;;;3.93;51.12;94537.28;4990690;28;20313;-62
2023/04/06 06:50:21;;;;;;;12.70;11.40;;;;;;;4.05;50.42;94520.69;4991759;28;20210;-66
2023/04/06 06:52:47;;;;;;;12.13;10.97;;;;;;;4.07;50.32;94541.38;4991266;28;20311;-66
2023/04/06 06:55:12;;;;;;;11.57;10.20;;;;;;;3.97;50.79;94534.31;4991861;28;20215;-66
2023/04/06 06:57:38;;;;;;;11.60;10.40;;;;;;;4.06;50.62;94534.50;4990366;28;20245;-63
2023/04/06 07:00:05;;;;;;;12.43;11.23;;;;;;;3.92;50.57;94538.22;4991121;28;20223;-65
2023/04/06 07:02:31;;;;;;;12.53;11.23;;;;;;;3.61;51.42;94529.44;4991997;28;20195;-65
2023/04/06 07:04:56;;;;;;;11.00;10.00;;;;;;;3.77;50.81;94532.50;4989872;28;20223;-64
2023/04/06 07:07:22;;;;;;;11.70;10.27;;;;;;;3.93;50.43;94522.50;4991413;28;20235;-64
2023/04/06 07:09:47;;;;;;;11.60;10.20;;;;;;;3.91;50.61;94524.41;4990395;28;20232;-63
2023/04/06 07:12:13;;;;;;;11.90;10.60;;;;;;;3.88;50.93;94518.63;4991825;28;20234;-63
2023/04/06 07:14:38;;;;;;;12.07;10.73;;;;;;;4.26;49.66;94525.91;4991600;28;20191;-62
2023/04/06 07:17:04;;;;;;;11.83;10.73;;;;;;;4.09;50.24;94526.44;4992085;28;20195;-63
2023/04/06 07:19:29;;;;;;;10.97;9.47;;;;;;;3.97;50.12;94513.50;4988844;28;20223;-63
2023/04/06 07:21:56;;;;;;;10.97;9.83;;;;;;;3.98;50.97;94525.56;4990591;28;20297;-63
2023/04/06 07:24:21;;;;;;;11.23;8.87;;;;;;;4.22;49.41;94523.69;4990891;28;20230;-63
2023/04/06 07:26:47;;;;;;;10.57;9.33;;;;;;;4.17;49.48;94517.09;4988781;28;20192;-63
2023/04/06 07:29:12;;;;;;;10.80;9.70;;;;;;;4.31;49.43;94523.75;4990419;28;20235;-63
2023/04/06 07:31:38;;;;;;;12.37;10.87;;;;;;;4.18;49.54;94518.72;4988886;28;20251;-63
2023/04/06 07:34:03;;;;;;;11.40;10.20;;;;;;;4.18;49.69;94521.34;4989917;28;20247;-63
2023/04/06 07:36:29;;;;;;;12.63;11.40;;;;;;;4.20;49.97;94526.44;4987094;28;20227;-64
2023/04/06 07:38:54;;;;;;;10.37;9.37;;;;;;;4.33;49.46;94510.59;4990534;28;20192;-65
2023/04/06 07:41:20;;;;;;;9.80;8.80;;;;;;;4.33;48.48;94527.06;4990539;28;20258;-65
2023/04/06 07:43:45;;;;;;;9.87;8.87;;;;;;;4.24;49.07;94532.19;4990752;28;20235;-66
2023/04/06 07:46:11;;;;;;;10.97;9.67;;;;;;;4.32;49.29;94530.63;4990331;28;20227;-65
2023/04/06 07:48:37;;;;;;;11.73;10.53;;;;;;;4.23;49.61;94514.94;4986868;28;20220;-65
2023/04/06 07:51:03;;;;;;;12.37;10.13;;;;;;;4.28;49.49;94524.03;4990075;28;20290;-65
2023/04/06 07:53:30;;;;;;;12.33;10.97;;;;;;;4.21;50.21;94528.06;4990164;28;20211;-68
2023/04/06 07:55:55;;;;;;;12.07;10.77;;;;;;;4.25;49.64;94518.22;4989049;28;20220;-68
2023/04/06 07:58:21;;;;;;;11.97;9.97;;;;;;;4.30;49.34;94516.06;4991062;28;20219;-68
2023/04/06 08:00:47;;;;;;;11.07;9.97;;;;;;;4.31;49.58;94513.34;4974573;28;20215;-68
2023/04/06 08:03:12;;;;;;;12.47;11.20;;;;;;;4.41;49.46;94522.06;4990067;28;20263;-67
2023/04/06 08:05:37;;;;;;;10.50;9.40;;;;;;;4.55;49.45;94525.31;4990358;28;20203;-66
2023/04/06 08:08:03;;;;;;;10.33;9.27;;;;;;;4.53;48.90;94524.59;4990022;28;20198;-65
2023/04/06 08:10:29;;;;;;;11.87;10.23;;;;;;;4.48;49.24;94511.13;4990989;28;20242;-70
2023/04/06 08:12:54;;;;;;;12.00;10.27;;;;;;;4.68;48.59;94518.13;4992080;28;20222;-68
2023/04/06 08:15:20;;;;;;;13.77;9.87;;;;;;;4.55;48.94;94517.50;4989718;28;20329;-69
2023/04/06 08:17:45;;;;;;;10.20;8.60;;;;;;;4.70;48.76;94516.19;4989628;28;20198;-66
2023/04/06 08:20:11;;;;;;;10.33;9.33;;;;;;;4.86;48.03;94513.97;4988045;28;20198;-70
2023/04/06 08:22:36;;;;;;;10.57;9.53;;;;;;;4.90;48.03;94509.31;4990568;28;20223;-68
2023/04/06 08:25:02;;;;;;;10.67;9.57;;;;;;;4.79;48.61;94519.81;4990619;28;20339;-68
2023/04/06 08:27:27;;;;;;;12.23;9.17;;;;;;;4.94;48.17;94526.31;4989448;28;20278;-69
2023/04/06 08:29:52;;;;;;;8.90;8.00;;;;;;;5.17;47.18;94521.78;4990225;28;20194;-68
2023/04/06 08:32:18;;;;;;;9.60;8.60;;;;;;;5.14;47.38;94535.06;4988749;28;20191;-71
2023/04/06 08:34:44;;;;;;;8.73;7.80;;;;;;;4.94;47.38;94522.91;4988555;28;20215;-70
2023/04/06 08:37:09;;;;;;;9.63;8.10;;;;;;;4.90;46.82;94519.75;4990546;28;20250;-69
2023/04/06 08:39:35;;;;;;;9.17;8.30;;;;;;;4.83;48.30;94521.22;4981598;28;20310;-68
2023/04/06 08:42:02;;;;;;;10.87;8.90;;;;;;;5.15;47.64;94523.69;4990228;28;20286;-66
2023/04/06 08:44:29;;;;;;;8.90;8.00;;;;;;;5.18;46.36;94528.63;4979767;28;20269;-70
2023/04/06 08:46:55;;;;;;;7.40;6.70;;;;;;;5.00;46.41;94525.00;4996074;28;20223;-66
2023/04/06 08:49:21;;;;;;;8.20;7.40;;;;;;;5.00;46.48;94532.81;4993254;28;20225;-65
2023/04/06 08:51:47;;;;;;;7.93;6.93;;;;;;;4.91;46.28;94536.19;4994177;28;20239;-65
2023/04/06 08:54:12;;;;;;;8.37;7.23;;;;;;;4.79;45.95;94530.25;4992665;28;20283;-65
2023/04/06 08:56:39;;;;;;;8.70;7.87;;;;;;;4.97;45.21;94518.28;4982950;28;20203;-67
2023/04/06 08:59:06;;;;;;;8.50;7.70;;;;;;;4.79;46.22;94514.63;4993766;28;20667;-68
2023/04/06 09:01:36;;;;;;;8.07;7.10;;;;;;;4.75;46.03;94519.25;4993793;28;20219;-69
2023/04/06 09:04:04;;;;;;;8.03;7.23;;;;;;;4.99;45.40;94531.16;4991543;28;20243;-69
2023/04/06 09:06:30;;;;;;;8.03;7.23;;;;;;;4.73;46.13;94513.34;4992845;28;20230;-69
2023/04/06 09:08:57;;;;;;;7.87;7.10;;;;;;;4.95;45.13;94514.97;4993647;28;20227;-68
2023/04/06 09:11:23;;;;;;;7.90;6.90;;;;;;;4.73;46.19;94512.50;4993513;28;20521;-66
2023/04/06 09:13:51;;;;;;;8.23;6.93;;;;;;;4.91;45.81;94510.13;4990245;28;20227;-65
2023/04/06 09:16:18;;;;;;;10.10;8.13;;;;;;;5.37;44.75;94514.84;4993361;28;20230;-69
2023/04/06 09:18:44;;;;;;;8.77;7.93;;;;;;;5.28;44.97;94521.69;4993297;28;20302;-70
2023/04/06 09:21:10;;;;;;;11.13;7.73;;;;;;;5.37;44.34;94519.25;4992088;28;20735;-69
2023/04/06 09:23:36;;;;;;;9.10;7.93;;;;;;;5.36;44.70;94497.56;4993058;28;20260;-70
2023/04/06 09:26:14;;;;;;;9.43;7.67;;;;;;;5.68;44.14;94514.81;4993582;28;20191;-70
2023/04/06 09:28:52;;;;;;;8.40;7.57;;;;;;;5.84;44.14;94504.66;4989357;28;20231;-68
2023/04/06 09:31:29;;;;;;;9.47;7.87;;;;;;;5.90;43.86;94513.72;4984990;28;20219;-69
2023/04/06 09:33:56;;;;;;;8.87;8.07;;;;;;;6.07;44.01;94505.28;4983608;28;20306;-69
2023/04/06 09:36:41;;;;;;;8.87;7.97;;;;;;;6.27;43.27;94510.50;4992469;28;20227;-69
2023/04/06 09:39:07;;;;;;;10.87;8.40;;;;;;;6.18;43.72;94510.34;4993172;28;20227;-68
2023/04/06 09:41:36;;;;;;;8.17;7.37;;;;;;;6.26;42.93;94506.25;4994145;28;20196;-68
2023/04/06 09:44:06;;;;;;;8.33;6.97;;;;;;;6.31;41.81;94501.44;4985917;28;20211;-69
2023/04/06 09:46:33;;;;;;;8.20;7.27;;;;;;;6.25;41.91;94515.00;4977877;28;20281;-68
2023/04/06 09:49:01;;;;;;;7.30;6.53;;;;;;;6.13;42.08;94512.56;4988307;28;20227;-68
2023/04/06 09:51:31;;;;;;;7.90;7.13;;;;;;;6.24;42.23;94508.97;5010229;28;20231;-68
2023/04/06 09:54:01;;;;;;;8.03;7.23;;;;;;;6.31;42.79;94514.50;4991056;28;20227;-68
2023/04/06 09:56:30;;;;;;;8.23;6.83;;;;;;;6.70;40.96;94523.09;4993506;28;20198;-68
2023/04/06 09:59:02;;;;;;;7.27;6.67;;;;;;;6.38;40.93;94528.63;4989773;28;20216;-68
2023/04/06 10:01:30;;;;;;;7.00;6.30;;;;;;;6.58;41.57;94508.56;4974463;28;20219;-68
2023/04/06 10:04:19;;;;;;;8.33;7.43;;;;;;;6.85;41.68;94502.56;5005937;28;20239;-68
2023/04/06 10:06:47;;;;;;;8.37;7.57;;;;;;;6.99;41.03;94523.03;4992677;28;20218;-66
2023/04/06 10:09:14;;;;;;;8.30;7.50;;;;;;;7.16;41.48;94503.16;4990750;28;20298;-67
2023/04/06 10:11:41;;;;;;;9.23;8.27;;;;;;;7.07;40.93;94515.28;4989814;28;20274;-66
2023/04/06 10:14:07;;;;;;;8.27;7.47;;;;;;;7.54;39.45;94508.34;4992769;28;20203;-65
2023/04/06 10:16:32;;;;;;;6.80;6.10;;;;;;;7.66;37.64;94528.13;4991203;28;20260;-66
2023/04/06 10:19:13;;;;;;;7.10;6.40;;;;;;;7.35;38.80;94502.28;4991408;28;20246;-67
2023/04/06 10:21:40;;;;;;;6.87;6.00;;;;;;;7.68;38.26;94508.69;4989531;28;20228;-68
2023/04/06 10:24:12;;;;;;;8.20;6.93;;;;;;;7.87;36.81;94513.00;4992268;28;20235;-67
2023/04/06 10:26:37;;;;;;;6.40;5.90;;;;;;;7.49;37.19;94520.09;4989969;28;20266;-67
2023/04/06 10:29:04;;;;;;;6.97;6.37;;;;;;;7.13;38.76;94510.47;4993256;28;20291;-67
2023/04/06 10:31:30;;;;;;;7.43;6.40;;;;;;;7.39;38.23;94500.19;4992359;28;20219;-67
2023/04/06 10:34:00;;;;;;;7.63;6.83;;;;;;;7.48;38.87;94494.91;4991126;28;20219;-67
2023/04/06 10:36:27;;;;;;;7.23;6.53;;;;;;;7.50;38.14;94492.13;4985997;28;20223;-68
2023/04/06 10:39:04;;;;;;;8.13;7.20;;;;;;;7.86;37.64;94500.06;4985602;28;20199;-68
2023/04/06 10:41:49;;;;;;;7.23;6.53;;;;;;;7.83;37.61;94500.34;4991902;28;20237;-70
2023/04/06 10:44:21;;;;;;;10.50;7.20;;;;;;;7.84;37.45;94494.16;4982571;28;20231;-66
2023/04/06 10:47:00;;;;;;;11.23;7.70;;;;;;;7.73;37.41;94484.72;4990593;28;20231;-66
2023/04/06 10:49:26;;;;;;;9.07;7.30;;;;;;;7.90;37.31;94488.31;4990723;28;20207;-67
2023/04/06 10:51:56;;;;;;;7.70;7.00;;;;;;;8.15;36.67;94489.34;4991515;28;20227;-66
2023/04/06 10:54:23;;;;;;;7.20;6.50;;;;;;;8.54;36.03;94489.06;4982440;28;20286;-66
2023/04/06 10:56:49;;;;;;;7.67;6.97;;;;;;;8.54;36.66;94495.13;5005874;28;20195;-63
2023/04/06 10:59:21;;;;;;;7.03;6.43;;;;;;;8.80;36.07;94492.53;4990361;28;20347;-68
2023/04/06 11:01:47;;;;;;;10.20;8.10;;;;;;;9.05;34.92;94474.31;4991482;28;20319;-68
2023/04/06 11:04:19;;;;;;;6.90;6.30;;;;;;;8.93;34.84;94486.91;4991590;28;20717;-64
2023/04/06 11:06:49;;;;;;;7.97;7.17;;;;;;;8.73;35.82;94477.56;4990756;28;20219;-68
2023/04/06 11:09:28;;;;;;;8.00;6.97;;;;;;;8.74;35.92;94474.81;4991685;28;20227;-65
2023/04/06 11:11:55;;;;;;;8.60;7.63;;;;;;;8.83;35.67;94478.31;4999918;28;20293;-69
2023/04/06 11:14:21;;;;;;;8.03;7.33;;;;;;;8.91;35.83;94473.09;4988434;28;20183;-67
2023/04/06 11:16:50;;;;;;;8.60;7.17;;;;;;;9.23;35.20;94482.94;4990907;28;20249;-64
2023/04/06 11:19:17;;;;;;;6.87;6.27;;;;;;;8.95;35.25;94482.28;4990995;28;20278;-64
2023/04/06 11:21:49;;;;;;;7.87;7.07;;;;;;;9.02;35.04;94461.53;4988005;28;20207;-64
2023/04/06 11:24:23;;;;;;;7.93;7.17;;;;;;;9.08;35.67;94473.19;4990758;28;20216;-65
2023/04/06 11:26:56;;;;;;;7.97;7.20;;;;;;;9.47;34.71;94469.13;4991126;28;20184;-65
2023/04/06 11:29:25;;;;;;;7.77;7.07;;;;;;;8.91;35.58;94461.81;4989294;28;20199;-66
2023/04/06 11:31:52;;;;;;;7.83;6.87;;;;;;;8.67;36.48;94458.03;4991240;28;20226;-67
2023/04/06 11:34:22;;;;;;;7.30;6.60;;;;;;;8.61;36.34;94449.00;4990539;28;20691;-68
2023/04/06 11:36:59;;;;;;;9.13;7.40;;;;;;;8.60;36.09;94464.88;4990830;28;20298;-69
2023/04/06 11:39:27;;;;;;;7.70;7.00;;;;;;;8.74;36.04;94459.09;4990867;28;20219;-67